Time;durP1;ratioP1;P1;durP2;ratioP2;P2;SDS_P1;SDS_P2;PMS_P1;PMS_P2;Temp;Humidity;BMP_temperature;BMP_pressure;BME280_temperature;BME280_humidity;BME280_pressure;Samples;Min_cycle;Max_cycle;Signal;HPM_P1;HPM_P2
2022/12/26 00:00:58;;;;;;;42.28;16.20;;;8.40;99.90;;;;;;5016050;28;20034;-82
2022/12/26 00:03:24;;;;;;;93.70;19.67;;;8.00;99.90;;;;;;5018431;28;20046;-82
2022/12/26 00:05:49;;;;;;;47.75;14.70;;;8.10;99.90;;;;;;5019689;28;20049;-82
2022/12/26 00:08:15;;;;;;;42.95;16.17;;;8.10;99.90;;;;;;5008416;28;20161;-82
2022/12/26 00:10:41;;;;;;;105.35;21.58;;;8.10;99.90;;;;;;5013921;28;20067;-82
2022/12/26 00:13:06;;;;;;;76.32;18.45;;;8.10;99.90;;;;;;5011472;28;20133;-81
2022/12/26 00:15:32;;;;;;;40.70;14.73;;;8.10;99.90;;;;;;5012031;28;20152;-82
2022/12/26 00:17:57;;;;;;;73.60;18.92;;;8.10;99.90;;;;;;5008708;28;20413;-81
2022/12/26 00:20:23;;;;;;;55.67;17.50;;;8.10;99.90;;;;;;5014025;28;20049;-82
2022/12/26 00:22:48;;;;;;;42.05;16.27;;;8.40;99.90;;;;;;5013084;28;20033;-82
2022/12/26 00:25:14;;;;;;;83.25;19.08;;;8.10;99.90;;;;;;5015161;28;20423;-82
2022/12/26 00:27:40;;;;;;;57.78;15.50;;;8.10;99.90;;;;;;5009848;28;20107;-82
2022/12/26 00:30:06;;;;;;;87.35;19.08;;;8.10;99.90;;;;;;5020205;28;20073;-82
2022/12/26 00:32:32;;;;;;;104.78;21.70;;;8.20;99.90;;;;;;5009758;28;20049;-82
2022/12/26 00:34:57;;;;;;;76.45;19.05;;;8.10;99.90;;;;;;5011210;28;20042;-82
2022/12/26 00:37:23;;;;;;;54.22;17.23;;;8.10;99.90;;;;;;5011596;28;20060;-82
2022/12/26 00:39:48;;;;;;;71.20;18.02;;;8.10;99.90;;;;;;5007037;28;20173;-82
2022/12/26 00:42:14;;;;;;;62.35;17.70;;;8.10;99.90;;;;;;5012874;28;20129;-82
2022/12/26 00:44:39;;;;;;;47.45;15.50;;;8.10;99.90;;;;;;5019404;28;20074;-82
2022/12/26 00:47:05;;;;;;;57.05;17.00;;;8.10;99.90;;;;;;5008567;28;20041;-82
2022/12/26 00:49:30;;;;;;;115.60;23.80;;;8.20;99.90;;;;;;5022576;28;20645;-82
2022/12/26 00:51:56;;;;;;;57.60;18.27;;;8.10;99.90;;;;;;5024875;28;20042;-83
2022/12/26 00:54:21;;;;;;;51.95;18.40;;;8.10;99.90;;;;;;5026120;28;20045;-82
2022/12/26 00:56:47;;;;;;;53.33;17.08;;;8.30;99.90;;;;;;5014855;28;20041;-82
2022/12/26 00:59:13;;;;;;;96.20;22.45;;;8.10;99.90;;;;;;5026188;28;20144;-82
2022/12/26 01:01:38;;;;;;;57.33;18.20;;;8.10;99.90;;;;;;5013178;28;20134;-82
2022/12/26 01:04:07;;;;;;;44.42;16.00;;;8.10;99.90;;;;;;5014060;28;20069;-83
2022/12/26 01:06:32;;;;;;;60.15;17.80;;;8.20;99.90;;;;;;5015559;28;20411;-82
2022/12/26 01:08:58;;;;;;;65.35;17.88;;;8.10;99.90;;;;;;5014906;28;20045;-82
2022/12/26 01:11:39;;;;;;;67.65;17.92;;;8.20;99.90;;;;;;5012612;28;20717;-81
2022/12/26 01:14:08;;;;;;;66.53;18.48;;;8.20;99.90;;;;;;5028785;28;20080;-82
2022/12/26 01:16:34;;;;;;;69.93;18.05;;;8.20;99.90;;;;;;5011908;28;20143;-82
2022/12/26 01:19:00;;;;;;;74.47;19.13;;;8.20;99.90;;;;;;5015847;28;20077;-82
2022/12/26 01:21:25;;;;;;;85.22;20.65;;;8.20;99.90;;;;;;5014397;28;20050;-82
2022/12/26 01:23:53;;;;;;;94.45;20.00;;;8.20;99.90;;;;;;5016374;28;20061;-82
2022/12/26 01:26:19;;;;;;;93.75;20.98;;;7.50;99.90;;;;;;5013707;28;20042;-82
2022/12/26 01:28:44;;;;;;;56.15;16.33;;;7.90;99.90;;;;;;5014275;28;20108;-82
2022/12/26 01:31:10;;;;;;;88.80;20.30;;;8.20;99.90;;;;;;5016484;28;20061;-82
2022/12/26 01:33:35;;;;;;;81.90;18.63;;;9.00;99.90;;;;;;5015324;28;20349;-82
2022/12/26 01:36:01;;;;;;;86.25;18.48;;;8.20;99.90;;;;;;5024367;28;20053;-82
2022/12/26 01:38:27;;;;;;;61.60;16.48;;;8.20;99.90;;;;;;5016481;28;20048;-82
2022/12/26 01:41:15;;;;;;;41.53;14.35;;;8.20;99.90;;;;;;5012477;28;20492;-82
2022/12/26 01:43:48;;;;;;;52.15;14.57;;;8.30;99.90;;;;;;5015618;28;20056;-82
2022/12/26 01:46:17;;;;;;;41.35;14.23;;;8.30;99.90;;;;;;5034579;28;20795;-82
2022/12/26 01:48:44;;;;;;;49.78;15.98;;;8.30;99.90;;;;;;5015315;28;20782;-81
2022/12/26 01:51:11;;;;;;;45.10;14.55;;;7.30;99.90;;;;;;5015978;28;20087;-82
2022/12/26 01:53:46;;;;;;;50.03;15.50;;;8.30;99.90;;;;;;5011761;28;20045;-81
2022/12/26 01:56:20;;;;;;;59.58;15.73;;;8.30;99.90;;;;;;5020660;28;20061;-82
2022/12/26 01:58:53;;;;;;;43.17;15.10;;;8.30;99.90;;;;;;5019877;28;20084;-81
2022/12/26 02:01:21;;;;;;;46.63;14.52;;;8.30;99.90;;;;;;5013751;28;20049;-82
2022/12/26 02:06:33;;;;;;;48.20;15.38;;;8.30;99.90;;;;;;5014486;28;20086;-81
2022/12/26 02:08:59;;;;;;;53.13;15.07;;;8.40;99.90;;;;;;5009080;28;20767;-81
2022/12/26 02:11:32;;;;;;;46.67;16.02;;;8.30;99.90;;;;;;5010158;28;20046;-81
2022/12/26 02:13:57;;;;;;;;;;;8.40;99.90;;;;;;5017206;28;20522;-82
2022/12/26 02:16:24;;;;;;;37.33;13.80;;;8.40;99.90;;;;;;5011468;28;20028;-82
2022/12/26 02:18:50;;;;;;;49.78;16.20;;;8.40;99.90;;;;;;5010520;28;20057;-81
2022/12/26 02:21:31;;;;;;;46.97;15.95;;;8.40;99.90;;;;;;5010396;28;20052;-81
2022/12/26 02:24:15;;;;;;;40.47;14.68;;;8.40;99.90;;;;;;5027018;28;20054;-82
2022/12/26 02:27:15;;;;;;;39.17;16.00;;;8.40;99.90;;;;;;5011448;28;20053;-81
2022/12/26 02:29:58;;;;;;;41.03;16.23;;;8.40;99.90;;;;;;5026468;28;20046;-82
2022/12/26 02:32:33;;;;;;;37.08;15.32;;;8.40;99.90;;;;;;5026695;28;20053;-82
2022/12/26 02:35:20;;;;;;;38.50;15.80;;;8.40;99.90;;;;;;5014198;28;20156;-81
2022/12/26 02:38:16;;;;;;;37.83;17.30;;;8.40;99.90;;;;;;5011997;28;20053;-82
2022/12/26 02:40:47;;;;;;;39.13;16.70;;;8.40;99.90;;;;;;5013522;28;20038;-81
2022/12/26 02:47:01;;;;;;;33.70;16.67;;;8.50;99.90;;;;;;5030737;28;20104;-81
2022/12/26 02:47:22;;;;;;;39.20;17.10;;;8.50;99.90;;;;;;5015786;28;20800;-82
2022/12/26 03:13:18;;;;;;;49.10;21.83;;;8.60;99.90;;;;;;5016268;28;20061;-81
2022/12/26 03:18:37;;;;;;;51.70;22.17;;;8.60;99.90;;;;;;5008098;28;20419;-81
2022/12/26 03:21:04;;;;;;;56.63;22.10;;;8.60;99.90;;;;;;5012853;28;20073;-82
2022/12/26 03:23:30;;;;;;;52.33;23.83;;;8.80;99.90;;;;;;5014207;28;20137;-82
2022/12/26 03:28:50;;;;;;;56.28;22.80;;;8.70;99.90;;;;;;5013427;28;20085;-82
2022/12/26 03:31:16;;;;;;;54.85;22.73;;;8.60;99.90;;;;;;5017646;28;20124;-82
2022/12/26 03:36:47;;;;;;;52.45;22.55;;;8.60;99.90;;;;;;5031453;28;20087;-82
2022/12/26 04:41:34;;;;;;;45.70;23.05;;;8.60;99.90;;;;;;5017730;28;20058;-82
2022/12/26 04:44:13;;;;;;;41.92;20.67;;;8.70;99.90;;;;;;5009793;28;20061;-81
2022/12/26 04:46:42;;;;;;;38.53;19.80;;;9.50;99.90;;;;;;5010912;28;20125;-82
2022/12/26 04:51:56;;;;;;;38.42;19.70;;;8.60;99.90;;;;;;5009762;28;20815;-82
2022/12/26 04:54:22;;;;;;;43.03;19.95;;;8.50;99.90;;;;;;5050240;28;20068;-82
2022/12/26 04:56:48;;;;;;;37.10;20.08;;;8.50;99.90;;;;;;5047177;28;20044;-82
2022/12/26 04:59:14;;;;;;;36.08;18.83;;;8.50;99.90;;;;;;5023609;28;20045;-82
2022/12/26 05:10:07;;;;;;;37.40;18.10;;;8.30;99.90;;;;;;5018706;28;20508;-82
2022/12/26 05:12:33;;;;;;;41.22;20.08;;;8.30;99.90;;;;;;5005108;28;20073;-82
2022/12/26 05:14:58;;;;;;;38.40;19.17;;;8.40;99.90;;;;;;5007500;28;20177;-82
2022/12/26 05:28:41;;;;;;;35.97;18.98;;;8.40;99.90;;;;;;5026062;28;20081;-81
2022/12/26 05:31:26;;;;;;;38.20;19.98;;;8.30;99.90;;;;;;5024721;28;20216;-82
2022/12/26 05:34:09;;;;;;;36.30;19.35;;;8.40;99.90;;;;;;5031351;28;20061;-81
2022/12/26 05:36:50;;;;;;;33.85;17.67;;;8.40;99.90;;;;;;5016162;28;20045;-82
2022/12/26 05:39:16;;;;;;;34.47;20.20;;;8.30;99.90;;;;;;4999746;28;20512;-81
2022/12/26 05:41:42;;;;;;;37.30;19.52;;;8.40;99.90;;;;;;5011787;28;20041;-81
2022/12/26 05:44:08;;;;;;;34.50;18.85;;;8.40;99.90;;;;;;5010406;28;20448;-81
2022/12/26 05:46:35;;;;;;;38.35;20.75;;;8.40;99.90;;;;;;5003398;28;20053;-81
2022/12/26 05:49:01;;;;;;;36.53;19.85;;;8.40;99.90;;;;;;5019315;28;20045;-81
2022/12/26 05:51:27;;;;;;;38.63;19.98;;;8.40;99.90;;;;;;5011541;28;20050;-82
2022/12/26 05:53:52;;;;;;;35.17;18.55;;;8.40;99.90;;;;;;5013801;28;20041;-81
2022/12/26 05:56:19;;;;;;;36.35;19.65;;;8.40;99.90;;;;;;5012577;28;20041;-81
2022/12/26 05:58:45;;;;;;;38.45;19.83;;;8.40;99.90;;;;;;5012656;28;20447;-82
2022/12/26 06:01:19;;;;;;;33.92;19.55;;;8.30;99.90;;;;;;5014400;28;20430;-81
2022/12/26 06:03:47;;;;;;;34.33;19.13;;;8.40;99.90;;;;;;5012856;28;20504;-81
2022/12/26 06:06:12;;;;;;;33.45;19.23;;;8.30;99.90;;;;;;5011958;28;20053;-81
2022/12/26 06:08:38;;;;;;;36.30;20.25;;;8.40;99.90;;;;;;5012531;28;20041;-82
2022/12/26 06:11:14;;;;;;;33.33;19.35;;;8.40;99.90;;;;;;5009222;28;20084;-82
2022/12/26 06:13:40;;;;;;;32.80;19.08;;;8.40;99.90;;;;;;5021740;28;20053;-82
2022/12/26 06:16:08;;;;;;;33.65;19.27;;;8.40;99.90;;;;;;5017978;28;20049;-81
2022/12/26 06:18:34;;;;;;;31.45;19.75;;;8.40;99.90;;;;;;5013433;28;20076;-82
2022/12/26 06:21:12;;;;;;;29.98;18.55;;;8.40;99.90;;;;;;5016047;28;20042;-82
2022/12/26 06:23:39;;;;;;;28.10;18.95;;;8.40;99.90;;;;;;5031677;28;20180;-82
2022/12/26 06:26:07;;;;;;;30.00;18.58;;;8.40;99.90;;;;;;5020370;28;20046;-82
2022/12/26 06:28:34;;;;;;;27.65;17.10;;;7.70;99.90;;;;;;5012789;28;20123;-83
2022/12/26 06:31:04;;;;;;;27.25;18.20;;;8.50;99.90;;;;;;5021079;28;20063;-81
2022/12/26 06:33:30;;;;;;;29.77;17.75;;;8.50;99.90;;;;;;5028622;28;20103;-80
2022/12/26 06:36:05;;;;;;;29.80;17.92;;;8.50;99.90;;;;;;5022743;28;20108;-80
2022/12/26 06:38:30;;;;;;;28.08;18.48;;;8.50;99.90;;;;;;5024861;28;20125;-81
2022/12/26 06:40:57;;;;;;;28.83;17.30;;;8.50;99.90;;;;;;5026515;28;20148;-81
2022/12/26 06:43:22;;;;;;;26.80;17.85;;;8.50;99.90;;;;;;5021390;28;20035;-81
2022/12/26 06:45:58;;;;;;;23.30;15.73;;;8.50;99.90;;;;;;5024006;28;20625;-82
2022/12/26 06:48:25;;;;;;;23.65;15.25;;;8.50;99.90;;;;;;5029897;28;20069;-82
2022/12/26 06:50:53;;;;;;;24.30;15.15;;;8.50;99.90;;;;;;5029976;28;20062;-81
2022/12/26 06:53:19;;;;;;;23.15;15.30;;;8.60;99.90;;;;;;5012070;28;20045;-81
2022/12/26 06:55:45;;;;;;;22.00;14.07;;;8.60;99.90;;;;;;5029132;28;20072;-82
2022/12/26 06:58:10;;;;;;;24.40;15.13;;;8.60;99.90;;;;;;5015480;28;20855;-82
2022/12/26 07:00:36;;;;;;;23.85;15.00;;;8.60;99.90;;;;;;5015054;28;20121;-81
2022/12/26 07:03:01;;;;;;;20.23;13.95;;;8.60;99.90;;;;;;5019081;28;20120;-81
2022/12/26 07:05:27;;;;;;;19.27;13.93;;;8.60;99.90;;;;;;5025889;28;20044;-81
2022/12/26 07:07:53;;;;;;;18.75;13.52;;;8.60;99.90;;;;;;5026581;28;20045;-81
2022/12/26 07:10:19;;;;;;;21.55;13.55;;;8.60;99.90;;;;;;5024575;28;20151;-79
2022/12/26 07:12:46;;;;;;;20.98;14.73;;;8.50;99.90;;;;;;5011762;28;20042;-83
2022/12/26 07:15:12;;;;;;;24.70;15.05;;;9.10;99.90;;;;;;5028840;28;20518;-82
2022/12/26 07:17:38;;;;;;;21.95;15.57;;;8.50;99.90;;;;;;5028785;28;20504;-82
2022/12/26 07:20:05;;;;;;;31.25;18.70;;;8.50;99.90;;;;;;5027891;28;20156;-82
2022/12/26 07:22:31;;;;;;;25.60;16.58;;;8.50;99.90;;;;;;5027861;28;20404;-82
2022/12/26 07:24:56;;;;;;;25.67;16.38;;;8.50;99.90;;;;;;5027909;28;20049;-84
2022/12/26 07:27:22;;;;;;;26.27;15.35;;;8.50;99.90;;;;;;5025477;28;20038;-82
2022/12/26 07:29:47;;;;;;;28.13;16.67;;;8.50;99.90;;;;;;5022569;28;20041;-84
2022/12/26 07:32:13;;;;;;;24.45;16.75;;;8.00;99.90;;;;;;5016207;28;20041;-82
2022/12/26 07:34:41;;;;;;;23.63;16.92;;;8.40;99.90;;;;;;5027008;28;20083;-82
2022/12/26 07:37:07;;;;;;;19.05;14.85;;;8.40;99.90;;;;;;5029112;28;20046;-83
2022/12/26 07:39:32;;;;;;;24.85;17.60;;;8.40;99.90;;;;;;5027588;28;20095;-82
2022/12/26 07:41:58;;;;;;;23.38;17.45;;;8.30;99.90;;;;;;5029000;28;20033;-84
2022/12/26 07:44:29;;;;;;;23.63;15.55;;;8.40;99.90;;;;;;5027565;28;20120;-82
2022/12/26 07:46:56;;;;;;;26.88;16.50;;;8.30;99.90;;;;;;5025753;28;20033;-82
2022/12/26 07:49:21;;;;;;;26.85;17.17;;;8.30;99.90;;;;;;5028159;28;20045;-83
2022/12/26 07:51:47;;;;;;;23.48;16.02;;;8.30;99.90;;;;;;5026977;28;20102;-83
2022/12/26 07:54:13;;;;;;;23.02;15.73;;;8.30;99.90;;;;;;5028649;28;20052;-82
2022/12/26 07:56:39;;;;;;;23.73;14.93;;;8.30;99.90;;;;;;5024223;28;20120;-83
2022/12/26 07:59:05;;;;;;;20.98;15.05;;;8.20;99.90;;;;;;5024896;28;20050;-84
2022/12/26 08:01:31;;;;;;;20.55;15.10;;;8.30;99.90;;;;;;5026657;28;20511;-83
2022/12/26 08:03:57;;;;;;;20.83;14.13;;;8.20;99.90;;;;;;5027340;28;20136;-84
2022/12/26 08:06:22;;;;;;;22.15;15.32;;;8.20;99.90;;;;;;5026552;28;20072;-83
2022/12/26 08:08:51;;;;;;;24.92;14.48;;;8.20;99.90;;;;;;5026966;28;20041;-84
2022/12/26 08:11:20;;;;;;;18.58;12.90;;;8.20;99.90;;;;;;5010419;28;20167;-83
2022/12/26 08:13:45;;;;;;;18.05;12.82;;;8.30;99.90;;;;;;5026907;28;20049;-83
2022/12/26 08:16:13;;;;;;;18.10;12.68;;;8.20;99.90;;;;;;5025203;28;20450;-84
2022/12/26 08:18:39;;;;;;;16.33;11.02;;;8.30;99.90;;;;;;5025993;28;20059;-83
2022/12/26 08:21:04;;;;;;;19.00;11.52;;;8.30;99.90;;;;;;5026339;28;20128;-84
2022/12/26 08:23:30;;;;;;;17.30;11.18;;;8.30;99.90;;;;;;5028271;28;20049;-85
2022/12/26 08:25:56;;;;;;;16.08;11.00;;;8.30;99.90;;;;;;5028053;28;20119;-83
2022/12/26 08:28:21;;;;;;;17.05;11.43;;;8.30;99.90;;;;;;5010212;28;20395;-81
2022/12/26 08:30:48;;;;;;;14.65;10.88;;;8.30;99.90;;;;;;5026172;28;20635;-82
2022/12/26 08:33:14;;;;;;;17.67;10.73;;;8.40;99.90;;;;;;5017231;28;20515;-82
2022/12/26 08:35:40;;;;;;;16.80;10.52;;;8.40;99.90;;;;;;5016566;28;20045;-82
2022/12/26 08:38:05;;;;;;;14.45;10.45;;;8.50;99.90;;;;;;5028174;28;20045;-82
2022/12/26 08:40:32;;;;;;;18.60;11.20;;;8.60;99.90;;;;;;5026481;28;20048;-83
2022/12/26 08:42:57;;;;;;;18.17;10.93;;;8.60;99.90;;;;;;5026257;28;20058;-83
2022/12/26 08:45:23;;;;;;;14.95;9.48;;;8.70;99.90;;;;;;5027688;28;20045;-83
2022/12/26 08:47:49;;;;;;;12.43;9.20;;;8.80;99.90;;;;;;5026217;28;20169;-83
2022/12/26 08:50:15;;;;;;;16.08;9.60;;;8.80;99.90;;;;;;5025347;28;20033;-84
2022/12/26 08:52:41;;;;;;;11.02;8.38;;;8.90;99.90;;;;;;5015852;28;20049;-82
2022/12/26 08:55:08;;;;;;;14.45;8.38;;;8.90;99.90;;;;;;5023368;28;20044;-82
2022/12/26 08:57:33;;;;;;;11.32;7.65;;;9.00;99.90;;;;;;5007876;28;20042;-82
2022/12/26 08:59:59;;;;;;;13.63;8.45;;;9.00;99.90;;;;;;5006762;28;20129;-82
2022/12/26 09:02:24;;;;;;;9.60;7.30;;;9.10;99.90;;;;;;5006416;28;20045;-82
2022/12/26 09:04:50;;;;;;;9.23;6.80;;;9.10;99.90;;;;;;5006652;28;20520;-83
2022/12/26 09:07:16;;;;;;;9.25;6.68;;;9.10;99.90;;;;;;5006711;28;20046;-82
2022/12/26 09:09:43;;;;;;;11.40;7.03;;;9.20;99.90;;;;;;5006609;28;20049;-81
2022/12/26 09:12:08;;;;;;;11.02;6.80;;;9.10;99.90;;;;;;5006940;28;20057;-81
2022/12/26 09:14:34;;;;;;;9.45;6.20;;;9.10;99.90;;;;;;5006420;28;20057;-83
2022/12/26 09:17:00;;;;;;;13.18;6.45;;;9.10;99.90;;;;;;5026516;28;20049;-82
2022/12/26 09:19:28;;;;;;;9.95;6.45;;;9.10;99.90;;;;;;5020615;28;20491;-82
2022/12/26 09:24:39;;;;;;;11.05;6.80;;;9.10;99.90;;;;;;5030903;28;20116;-79
2022/12/26 09:27:04;;;;;;;9.38;6.10;;;9.10;99.90;;;;;;5031033;28;20519;-79
2022/12/26 09:29:30;;;;;;;8.98;6.22;;;9.10;99.90;;;;;;5031149;28;20073;-79
2022/12/26 09:31:55;;;;;;;13.75;6.53;;;9.10;99.90;;;;;;5031000;28;20053;-80
2022/12/26 09:34:21;;;;;;;8.25;6.38;;;9.10;99.90;;;;;;5031062;28;20081;-79
2022/12/26 09:36:46;;;;;;;6.90;6.13;;;9.10;99.90;;;;;;5027646;28;20522;-79
2022/12/26 09:39:12;;;;;;;8.30;6.00;;;9.10;99.90;;;;;;5019747;28;20455;-79
2022/12/26 09:41:51;;;;;;;8.38;5.82;;;9.10;99.90;;;;;;5009488;28;20049;-79
2022/12/26 09:44:35;;;;;;;8.52;5.93;;;9.10;99.90;;;;;;5028730;28;20045;-80
2022/12/26 09:47:18;;;;;;;7.63;6.07;;;9.10;99.90;;;;;;5018154;28;20179;-80
2022/12/26 09:50:08;;;;;;;9.32;5.50;;;9.10;99.90;;;;;;5019262;28;20475;-79
2022/12/26 09:52:42;;;;;;;9.60;5.80;;;9.10;99.90;;;;;;5011045;28;20046;-78
2022/12/26 09:55:27;;;;;;;9.50;6.35;;;9.10;99.90;;;;;;5025870;28;20061;-80
2022/12/26 09:57:57;;;;;;;9.00;5.70;;;9.10;99.90;;;;;;5029295;28;20471;-81
2022/12/26 10:00:37;;;;;;;9.68;5.10;;;9.10;99.90;;;;;;5031111;28;20037;-79
2022/12/26 10:03:03;;;;;;;7.90;5.07;;;9.30;99.90;;;;;;5031038;28;20129;-78
2022/12/26 10:05:37;;;;;;;7.72;4.93;;;9.10;99.90;;;;;;5019825;28;20100;-79
2022/12/26 10:08:25;;;;;;;7.28;4.35;;;9.10;99.90;;;;;;5014579;28;20124;-81
2022/12/26 10:11:00;;;;;;;7.85;3.38;;;9.10;99.90;;;;;;5028634;28;20443;-79
2022/12/26 10:13:32;;;;;;;8.52;2.45;;;9.00;99.90;;;;;;5016560;28;20103;-79
2022/12/26 10:16:02;;;;;;;12.00;2.70;;;8.90;99.90;;;;;;5031026;28;20060;-79
2022/12/26 10:19:07;;;;;;;11.65;2.00;;;8.60;99.90;;;;;;5017706;28;20037;-80
2022/12/26 10:22:05;;;;;;;11.23;2.17;;;8.40;99.90;;;;;;5008665;28;20380;-79
2022/12/26 10:24:35;;;;;;;11.20;1.92;;;8.00;99.90;;;;;;5010733;28;20046;-81
2022/12/26 10:27:09;;;;;;;4.85;1.70;;;7.90;99.90;;;;;;5020048;28;20503;-80
2022/12/26 10:29:46;;;;;;;7.65;1.50;;;7.80;99.90;;;;;;5029406;28;20598;-79
2022/12/26 10:32:21;;;;;;;4.88;2.10;;;7.70;99.90;;;;;;5030204;28;20045;-80
2022/12/26 10:34:48;;;;;;;7.45;2.47;;;7.70;99.90;;;;;;5022927;28;20060;-79
2022/12/26 10:37:31;;;;;;;8.60;1.77;;;7.70;99.90;;;;;;5024624;28;20042;-80
2022/12/26 10:40:18;;;;;;;8.43;2.25;;;8.00;99.90;;;;;;5011852;28;20085;-79
2022/12/26 10:42:49;;;;;;;10.63;1.90;;;7.70;99.90;;;;;;5015603;28;20152;-80
2022/12/26 10:45:16;;;;;;;7.30;1.60;;;7.70;99.90;;;;;;5010500;28;20064;-79
2022/12/26 10:47:45;;;;;;;9.38;1.60;;;7.70;99.90;;;;;;5027180;28;20045;-79
2022/12/26 10:50:20;;;;;;;11.45;1.77;;;7.70;99.90;;;;;;5030178;28;20057;-79
2022/12/26 10:52:45;;;;;;;6.47;1.30;;;7.80;99.90;;;;;;5029812;28;20488;-78
2022/12/26 10:55:18;;;;;;;5.47;1.15;;;7.80;99.90;;;;;;5017587;28;20061;-79
2022/12/26 10:57:49;;;;;;;6.65;1.75;;;7.90;99.90;;;;;;4993404;28;20049;-79
2022/12/26 11:00:19;;;;;;;4.97;1.30;;;7.80;99.90;;;;;;5008867;28;20100;-80
2022/12/26 11:03:00;;;;;;;6.35;1.30;;;7.80;99.90;;;;;;5008638;28;20859;-79
2022/12/26 11:05:25;;;;;;;8.35;1.30;;;7.80;99.90;;;;;;5025190;28;20183;-79
2022/12/26 11:07:55;;;;;;;5.88;1.23;;;7.80;99.90;;;;;;5027491;28;20132;-80
2022/12/26 11:10:25;;;;;;;7.90;1.55;;;7.80;99.90;;;;;;5027398;28;20049;-79
2022/12/26 11:12:55;;;;;;;8.32;1.30;;;7.70;99.90;;;;;;5023652;28;20223;-79
2022/12/26 11:15:45;;;;;;;6.55;1.42;;;7.70;99.90;;;;;;5009364;28;20522;-79
2022/12/26 11:18:16;;;;;;;10.60;2.08;;;7.70;99.90;;;;;;5008017;28;20053;-79
2022/12/26 11:20:43;;;;;;;9.30;1.73;;;7.60;99.90;;;;;;4991303;28;20056;-79
2022/12/26 11:23:24;;;;;;;11.02;2.30;;;7.60;99.90;;;;;;5009050;28;20042;-78
2022/12/26 11:25:53;;;;;;;7.53;1.95;;;7.60;99.90;;;;;;5014951;28;20045;-78
2022/12/26 11:28:29;;;;;;;9.80;1.92;;;7.50;99.90;;;;;;5018174;28;20049;-78
2022/12/26 11:30:56;;;;;;;6.93;1.98;;;7.50;99.90;;;;;;5018235;28;20061;-79
2022/12/26 11:33:42;;;;;;;11.10;1.90;;;7.50;99.90;;;;;;5028840;28;20922;-79
2022/12/26 11:36:17;;;;;;;7.18;1.90;;;7.40;99.90;;;;;;5028022;28;20057;-78
2022/12/26 11:38:55;;;;;;;8.88;1.73;;;7.40;99.90;;;;;;5028825;28;20056;-79
2022/12/26 11:41:30;;;;;;;7.00;0.98;;;7.50;99.90;;;;;;5009848;28;20060;-78
2022/12/26 11:44:27;;;;;;;9.40;1.75;;;7.50;99.90;;;;;;5027758;28;20059;-79
2022/12/26 11:47:13;;;;;;;4.43;1.27;;;7.50;99.90;;;;;;5031863;28;20076;-78
2022/12/26 11:50:01;;;;;;;7.78;1.50;;;7.50;99.90;;;;;;5026647;28;20038;-79
2022/12/26 11:52:32;;;;;;;8.00;1.10;;;7.50;99.90;;;;;;5027168;28;20121;-79
2022/12/26 11:54:58;;;;;;;7.53;1.80;;;7.60;99.90;;;;;;5028099;28;20179;-80
2022/12/26 11:57:32;;;;;;;5.28;1.25;;;7.60;99.90;;;;;;5026994;28;20049;-80
2022/12/26 12:00:20;;;;;;;6.40;1.63;;;7.60;99.90;;;;;;5026247;28;20045;-81
2022/12/26 12:02:46;;;;;;;6.32;1.33;;;7.60;99.90;;;;;;5013885;28;20167;-81
2022/12/26 12:05:20;;;;;;;7.10;2.55;;;7.70;99.90;;;;;;5016983;28;20418;-80
2022/12/26 12:08:26;;;;;;;7.70;1.45;;;7.60;99.90;;;;;;5023392;28;20045;-80
2022/12/26 12:11:23;;;;;;;8.88;1.88;;;7.60;99.90;;;;;;5024771;28;20101;-81
2022/12/26 12:14:30;;;;;;;7.80;1.92;;;7.60;99.90;;;;;;5028021;28;20045;-80
2022/12/26 12:17:17;;;;;;;8.55;2.47;;;7.70;99.90;;;;;;5027272;28;20053;-79
2022/12/26 12:20:02;;;;;;;7.05;1.92;;;7.70;99.90;;;;;;5026402;28;20140;-81
2022/12/26 12:22:54;;;;;;;9.32;1.50;;;7.70;99.90;;;;;;5026300;28;20041;-80
2022/12/26 12:25:43;;;;;;;6.90;1.55;;;7.80;99.90;;;;;;5019653;28;20045;-81
2022/12/26 12:28:27;;;;;;;10.13;2.08;;;7.90;99.90;;;;;;5024864;28;20045;-81
2022/12/26 12:31:08;;;;;;;11.40;1.88;;;7.90;99.90;;;;;;5015642;28;20042;-81
2022/12/26 12:33:54;;;;;;;6.45;1.45;;;7.90;99.90;;;;;;5007405;28;20046;-80
2022/12/26 12:36:27;;;;;;;7.75;2.15;;;7.90;99.90;;;;;;5006182;28;20474;-80
2022/12/26 12:39:30;;;;;;;14.13;1.90;;;7.80;99.90;;;;;;5007975;28;20065;-80
2022/12/26 12:42:16;;;;;;;8.15;1.67;;;7.80;99.90;;;;;;5024815;28;20533;-79
2022/12/26 12:44:50;;;;;;;11.85;2.17;;;7.80;99.90;;;;;;5004797;28;20058;-79
2022/12/26 12:47:27;;;;;;;7.15;1.88;;;7.80;99.90;;;;;;5027642;28;20060;-80
2022/12/26 12:50:14;;;;;;;11.48;2.53;;;7.70;99.90;;;;;;5009943;28;20049;-80
2022/12/26 12:53:30;;;;;;;9.23;2.45;;;7.10;99.90;;;;;;5010547;28;20705;-78
2022/12/26 12:56:08;;;;;;;12.00;3.10;;;7.80;99.90;;;;;;5011798;28;20037;-80
2022/12/26 12:59:08;;;;;;;10.93;2.47;;;7.80;99.90;;;;;;5012436;28;20052;-79
2022/12/26 13:01:43;;;;;;;10.73;2.08;;;7.80;99.90;;;;;;5017479;28;21020;-81
2022/12/26 13:04:18;;;;;;;8.93;2.78;;;7.70;99.90;;;;;;4994512;28;20084;-80
2022/12/26 13:06:55;;;;;;;7.25;2.13;;;7.60;99.90;;;;;;5013165;28;20606;-80
2022/12/26 13:09:33;;;;;;;12.85;2.00;;;7.60;99.90;;;;;;5029738;28;20183;-82
2022/12/26 13:12:07;;;;;;;13.95;2.53;;;7.50;99.90;;;;;;5015683;28;20045;-81
2022/12/26 13:14:47;;;;;;;10.70;1.77;;;7.50;99.90;;;;;;5031084;28;20043;-80
2022/12/26 13:17:21;;;;;;;10.43;1.98;;;7.40;99.90;;;;;;5029364;28;20060;-79
2022/12/26 13:20:04;;;;;;;8.38;2.25;;;7.40;99.90;;;;;;5030972;28;20563;-80
2022/12/26 13:24:22;;;;;;;9.73;2.50;;;7.40;99.90;;;;;;5045170;28;20050;-80
2022/12/26 13:25:21;;;;;;;14.13;2.65;;;7.40;99.90;;;;;;5026532;28;20095;-81
2022/12/26 13:27:50;;;;;;;11.30;2.03;;;7.40;99.90;;;;;;5025930;28;20671;-79
2022/12/26 13:30:16;;;;;;;7.95;1.95;;;7.40;99.90;;;;;;5028160;28;20100;-80
2022/12/26 13:32:43;;;;;;;6.57;2.00;;;7.40;99.90;;;;;;5028398;28;20049;-80
2022/12/26 13:35:47;;;;;;;7.88;2.10;;;7.30;99.90;;;;;;5028721;28;20045;-80
2022/12/26 13:38:12;;;;;;;9.98;1.60;;;7.40;99.90;;;;;;5029819;28;20050;-81
2022/12/26 13:40:46;;;;;;;12.55;2.08;;;7.30;99.90;;;;;;5029580;28;20060;-80
2022/12/26 13:46:40;;;;;;;12.43;2.22;;;7.30;99.90;;;;;;5029858;28;20503;-80
2022/12/26 13:49:28;;;;;;;14.30;1.80;;;7.20;99.90;;;;;;5029348;28;20153;-80
2022/12/26 13:52:30;;;;;;;7.70;2.20;;;7.20;99.90;;;;;;5029895;28;20172;-80
2022/12/26 13:54:56;;;;;;;11.05;2.40;;;7.10;99.90;;;;;;5029739;28;20512;-81
2022/12/26 13:57:41;;;;;;;6.80;2.38;;;7.50;99.90;;;;;;5028618;28;20053;-80
2022/12/26 14:00:15;;;;;;;14.77;2.35;;;7.10;99.90;;;;;;5009690;28;20507;-80
2022/12/26 14:02:52;;;;;;;10.90;2.47;;;7.10;99.90;;;;;;5018253;28;20545;-79
2022/12/26 14:05:24;;;;;;;10.85;2.63;;;7.10;99.90;;;;;;5028914;28;20102;-81
2022/12/26 14:08:02;;;;;;;10.45;1.90;;;7.00;99.90;;;;;;5030630;28;20065;-80
2022/12/26 14:11:07;;;;;;;10.50;1.70;;;6.90;99.90;;;;;;5029531;28;20080;-80
2022/12/26 14:14:09;;;;;;;8.68;1.65;;;6.90;99.90;;;;;;5029349;28;20418;-80
2022/12/26 14:16:49;;;;;;;9.07;1.90;;;7.00;99.90;;;;;;5028567;28;20360;-80
2022/12/26 14:19:27;;;;;;;12.27;2.67;;;7.00;99.90;;;;;;5028194;28;20128;-79
2022/12/26 14:22:21;;;;;;;8.07;1.95;;;7.00;99.90;;;;;;5028728;28;20041;-81
2022/12/26 14:25:18;;;;;;;10.38;1.80;;;7.00;99.90;;;;;;5028790;28;20092;-80
2022/12/26 14:28:04;;;;;;;13.73;2.03;;;7.00;99.90;;;;;;5026836;28;20060;-80
2022/12/26 14:30:54;;;;;;;9.13;2.20;;;7.00;99.90;;;;;;5028850;28;20087;-81
2022/12/26 14:33:46;;;;;;;11.85;2.65;;;7.00;99.90;;;;;;5037617;28;20053;-80
2022/12/26 14:36:43;;;;;;;9.20;2.30;;;7.00;99.90;;;;;;5028767;28;20049;-80
2022/12/26 14:39:21;;;;;;;8.85;1.98;;;6.90;99.90;;;;;;5029017;28;20045;-80
2022/12/26 14:44:52;;;;;;;7.78;1.85;;;6.80;99.90;;;;;;5028726;28;20049;-79
2022/12/26 14:47:40;;;;;;;9.82;1.88;;;6.70;99.90;;;;;;5027107;28;20052;-79
2022/12/26 14:50:31;;;;;;;9.25;1.58;;;6.70;99.90;;;;;;5011068;28;20753;-79
2022/12/26 14:53:27;;;;;;;9.95;1.90;;;6.60;99.90;;;;;;5010421;28;20053;-79
2022/12/26 14:55:56;;;;;;;15.07;2.17;;;6.50;99.90;;;;;;5008044;28;20138;-80
2022/12/26 14:58:31;;;;;;;8.55;1.92;;;6.40;99.90;;;;;;5008449;28;20050;-80
2022/12/26 15:01:22;;;;;;;7.63;1.52;;;6.30;99.90;;;;;;5009838;28;20085;-80
2022/12/26 15:04:07;;;;;;;10.05;1.92;;;6.30;99.90;;;;;;5017279;28;20068;-81
2022/12/26 15:07:11;;;;;;;9.07;1.67;;;6.20;99.90;;;;;;5011482;28;20061;-79
2022/12/26 15:10:20;;;;;;;10.45;2.75;;;6.10;99.90;;;;;;5008680;28;20058;-81
2022/12/26 15:13:22;;;;;;;7.25;2.50;;;6.10;99.90;;;;;;5008155;28;20080;-81
2022/12/26 15:16:16;;;;;;;11.73;2.20;;;6.00;99.90;;;;;;5007828;28;20080;-80
2022/12/26 15:19:04;;;;;;;6.25;1.92;;;5.90;99.90;;;;;;5007522;28;20176;-81
2022/12/26 15:22:15;;;;;;;9.77;3.03;;;5.80;99.90;;;;;;5007685;28;20088;-80
2022/12/26 15:24:55;;;;;;;10.90;1.98;;;5.80;99.90;;;;;;5028866;28;20058;-80
2022/12/26 15:27:50;;;;;;;9.55;2.10;;;5.80;99.90;;;;;;5028434;28;20140;-81